Time;durP1;ratioP1;P1;durP2;ratioP2;P2;SDS_P1;SDS_P2;PMS_P1;PMS_P2;Temp;Humidity;BMP_temperature;BMP_pressure;BME280_temperature;BME280_humidity;BME280_pressure;Samples;Min_cycle;Max_cycle;Signal;HPM_P1;HPM_P2
2022/10/28 00:00:44;;;;;;;17.03;10.23;;;;;;;;;;10433495;28;20490;-87
2022/10/28 00:05:46;;;;;;;16.80;9.77;;;;;;;;;;10444704;28;20476;-87
2022/10/28 00:10:47;;;;;;;16.60;10.30;;;;;;;;;;10443276;28;20831;-88
2022/10/28 00:15:51;;;;;;;16.33;9.85;;;;;;;;;;10426822;28;20507;-88
2022/10/28 00:20:52;;;;;;;17.20;10.43;;;;;;;;;;10429699;28;20943;-89
2022/10/28 00:25:54;;;;;;;17.08;10.40;;;;;;;;;;10430515;28;20418;-89
2022/10/28 00:31:03;;;;;;;16.83;10.57;;;;;;;;;;10427471;28;20486;-88
2022/10/28 00:36:13;;;;;;;17.10;10.80;;;;;;;;;;10438228;28;20503;-88
2022/10/28 00:41:16;;;;;;;19.00;10.95;;;;;;;;;;10429052;28;20450;-88
2022/10/28 00:46:26;;;;;;;17.45;10.23;;;;;;;;;;10442875;28;20447;-89
2022/10/28 00:51:30;;;;;;;14.30;9.23;;;;;;;;;;10433388;28;20404;-88
2022/10/28 00:56:37;;;;;;;13.55;8.68;;;;;;;;;;10441749;28;20410;-89
2022/10/28 01:01:40;;;;;;;11.18;7.80;;;;;;;;;;10436845;28;20450;-88
2022/10/28 01:06:42;;;;;;;12.27;7.43;;;;;;;;;;10427364;28;20435;-88
2022/10/28 01:11:58;;;;;;;12.67;7.43;;;;;;;;;;10438568;28;20418;-88
2022/10/28 01:17:17;;;;;;;12.23;7.70;;;;;;;;;;10406627;28;20498;-87
2022/10/28 01:22:23;;;;;;;11.35;7.05;;;;;;;;;;10424093;28;20596;-88
2022/10/28 01:28:07;;;;;;;12.57;7.53;;;;;;;;;;10439246;28;20999;-88
2022/10/28 01:33:14;;;;;;;10.93;7.23;;;;;;;;;;10433342;28;20514;-88
2022/10/28 01:38:27;;;;;;;12.60;7.20;;;;;;;;;;10442512;28;20852;-88
2022/10/28 01:43:34;;;;;;;10.57;7.10;;;;;;;;;;10441042;28;20490;-87
2022/10/28 01:48:43;;;;;;;12.70;7.65;;;;;;;;;;10428436;28;20520;-88
2022/10/28 01:53:51;;;;;;;13.70;7.30;;;;;;;;;;10441299;28;20491;-88
2022/10/28 01:58:55;;;;;;;10.57;7.72;;;;;;;;;;10442639;28;20495;-88
2022/10/28 02:03:59;;;;;;;12.77;7.78;;;;;;;;;;10442032;28;20836;-89
2022/10/28 02:09:26;;;;;;;10.27;7.28;;;;;;;;;;10428246;28;21479;-88
2022/10/28 02:14:41;;;;;;;11.23;7.00;;;;;;;;;;10440973;28;20439;-89
2022/10/28 02:19:53;;;;;;;9.37;7.13;;;;;;;;;;10439641;28;20402;-89
2022/10/28 02:25:02;;;;;;;10.98;7.10;;;;;;;;;;10414120;28;20408;-88
2022/10/28 02:30:09;;;;;;;9.88;7.18;;;;;;;;;;10428761;28;20483;-89
2022/10/28 02:35:17;;;;;;;11.57;7.63;;;;;;;;;;10435152;28;20884;-89
2022/10/28 02:40:22;;;;;;;11.10;7.50;;;;;;;;;;10439210;28;20469;-87
2022/10/28 02:45:28;;;;;;;11.48;7.05;;;;;;;;;;10438607;28;20764;-89
2022/10/28 02:50:36;;;;;;;10.57;7.53;;;;;;;;;;10423666;28;20421;-88
2022/10/28 02:55:42;;;;;;;12.75;7.60;;;;;;;;;;10425456;28;20737;-88
2022/10/28 03:00:45;;;;;;;10.60;7.45;;;;;;;;;;10435905;28;20868;-87
2022/10/28 03:05:48;;;;;;;10.07;6.90;;;;;;;;;;10434863;28;20534;-88
2022/10/28 03:10:50;;;;;;;12.02;7.32;;;;;;;;;;10431070;28;20481;-88
2022/10/28 03:15:52;;;;;;;11.30;7.10;;;;;;;;;;10421879;28;20404;-88
2022/10/28 03:20:56;;;;;;;12.13;7.37;;;;;;;;;;10430132;28;20454;-88
2022/10/28 03:25:57;;;;;;;10.63;6.95;;;;;;;;;;10427124;28;20418;-89
2022/10/28 03:30:59;;;;;;;11.25;6.97;;;;;;;;;;10438735;28;20418;-87
2022/10/28 03:36:03;;;;;;;11.57;6.70;;;;;;;;;;10437920;28;20411;-87
2022/10/28 03:41:05;;;;;;;12.82;7.07;;;;;;;;;;10437556;28;20461;-88
2022/10/28 03:46:07;;;;;;;10.68;6.75;;;;;;;;;;10438630;28;20403;-87
2022/10/28 03:51:10;;;;;;;9.65;6.72;;;;;;;;;;10438479;28;20407;-88
2022/10/28 03:56:13;;;;;;;9.80;6.45;;;;;;;;;;10437459;28;20426;-88
2022/10/28 04:01:15;;;;;;;9.85;6.20;;;;;;;;;;10436159;28;20403;-88
2022/10/28 04:06:18;;;;;;;11.40;6.57;;;;;;;;;;10440475;28;20538;-88
2022/10/28 04:11:20;;;;;;;9.13;6.22;;;;;;;;;;10442815;28;20418;-88
2022/10/28 04:16:22;;;;;;;11.60;6.50;;;;;;;;;;10444186;28;20402;-88
2022/10/28 04:21:25;;;;;;;8.80;6.47;;;;;;;;;;10440032;28;20408;-88
2022/10/28 04:26:29;;;;;;;12.23;7.75;;;;;;;;;;10436799;28;20473;-88
2022/10/28 04:31:31;;;;;;;11.55;6.75;;;;;;;;;;10444923;28;20408;-89
2022/10/28 04:36:34;;;;;;;11.50;6.77;;;;;;;;;;10443605;28;20958;-89
2022/10/28 04:41:36;;;;;;;9.47;5.60;;;;;;;;;;10444084;28;20431;-89
2022/10/28 04:46:38;;;;;;;9.52;6.32;;;;;;;;;;10449666;22;20508;-96
2022/10/28 04:51:41;;;;;;;9.82;5.97;;;;;;;;;;10409143;28;20951;-95
2022/10/28 04:56:43;;;;;;;11.52;5.88;;;;;;;;;;10410871;28;20417;-96
2022/10/28 05:01:45;;;;;;;10.43;6.30;;;;;;;;;;10413309;28;20463;-96
2022/10/28 05:06:49;;;;;;;10.95;6.38;;;;;;;;;;10407547;28;20476;-96
2022/10/28 05:11:53;;;;;;;10.75;5.80;;;;;;;;;;10412688;28;20405;-96
2022/10/28 05:16:55;;;;;;;10.68;5.72;;;;;;;;;;10414795;28;20418;-95
2022/10/28 05:21:58;;;;;;;10.23;5.87;;;;;;;;;;10412737;28;20653;-96
2022/10/28 05:27:03;;;;;;;8.87;6.27;;;;;;;;;;10414784;28;20475;-96
2022/10/28 05:32:05;;;;;;;10.45;5.40;;;;;;;;;;10418073;28;20439;-96
2022/10/28 05:37:09;;;;;;;8.77;5.88;;;;;;;;;;10408660;28;20405;-96
2022/10/28 05:53:06;;;;;;;9.10;6.05;;;;;;;;;;10464420;28;20557;-96
2022/10/28 05:58:09;;;;;;;7.93;5.72;;;;;;;;;;10462531;28;20411;-96
2022/10/28 06:03:12;;;;;;;11.60;5.70;;;;;;;;;;10457058;28;20442;-96
2022/10/28 06:08:15;;;;;;;11.98;6.68;;;;;;;;;;10452878;28;20478;-96
2022/10/28 06:13:17;;;;;;;11.27;6.55;;;;;;;;;;10448474;28;20396;-96
2022/10/28 06:18:19;;;;;;;12.18;6.45;;;;;;;;;;10457334;28;20768;-96
2022/10/28 06:23:23;;;;;;;11.60;6.40;;;;;;;;;;10461490;28;20423;-96
2022/10/28 06:28:25;;;;;;;9.15;6.68;;;;;;;;;;10457574;28;20772;-96
2022/10/28 06:33:27;;;;;;;14.65;7.30;;;;;;;;;;10455928;28;20416;-96
2022/10/28 06:38:31;;;;;;;14.53;7.20;;;;;;;;;;10456007;28;20465;-96
2022/10/28 06:43:33;;;;;;;13.03;7.80;;;;;;;;;;10457807;28;20418;-96
2022/10/28 06:48:35;;;;;;;13.00;7.57;;;;;;;;;;10454393;28;20422;-96
2022/10/28 06:53:38;;;;;;;10.95;7.20;;;;;;;;;;10455518;28;20407;-96
2022/10/28 06:58:40;;;;;;;12.30;7.22;;;;;;;;;;10453622;28;20426;-96
2022/10/28 07:03:42;;;;;;;14.73;7.50;;;;;;;;;;10455067;28;20407;-96
2022/10/28 07:08:45;;;;;;;12.52;7.60;;;;;;;;;;10453476;28;20411;-96
2022/10/28 07:13:47;;;;;;;17.63;8.05;;;;;;;;;;10450596;28;20419;-96
2022/10/28 07:18:49;;;;;;;12.88;7.38;;;;;;;;;;10453490;28;20408;-96
2022/10/28 07:23:53;;;;;;;13.80;7.72;;;;;;;;;;10453710;28;20408;-96
2022/10/28 07:28:55;;;;;;;18.50;8.15;;;;;;;;;;10453920;28;20485;-96
2022/10/28 07:33:59;;;;;;;15.77;8.03;;;;;;;;;;10452683;28;20408;-96
2022/10/28 07:39:03;;;;;;;15.48;8.65;;;;;;;;;;10453388;28;20411;-96
2022/10/28 07:44:05;;;;;;;12.40;7.57;;;;;;;;;;10454204;28;20408;-96
2022/10/28 07:49:07;;;;;;;11.25;7.13;;;;;;;;;;10459242;28;20451;-96
2022/10/28 07:54:12;;;;;;;12.13;8.57;;;;;;;;;;10459998;28;20408;-96
2022/10/28 07:59:14;;;;;;;12.97;7.80;;;;;;;;;;10457641;28;21062;-96
2022/10/28 08:04:16;;;;;;;12.45;6.93;;;;;;;;;;10456841;28;20419;-96
2022/10/28 08:09:19;;;;;;;13.88;7.28;;;;;;;;;;10457482;28;20446;-96
2022/10/28 08:14:22;;;;;;;11.18;7.10;;;;;;;;;;10446260;28;20422;-96
2022/10/28 08:19:23;;;;;;;12.13;7.78;;;;;;;;;;10441298;28;20883;-96
2022/10/28 08:24:27;;;;;;;15.80;7.80;;;;;;;;;;10438240;28;20443;-95
2022/10/28 08:29:29;;;;;;;13.48;7.35;;;;;;;;;;10453740;28;20443;-96
2022/10/28 08:34:31;;;;;;;10.43;6.83;;;;;;;;;;10454655;28;20398;-96
2022/10/28 08:39:34;;;;;;;13.50;7.00;;;;;;;;;;10454669;28;20411;-96
2022/10/28 08:45:01;;;;;;;10.20;6.57;;;;;;;;;;10455213;28;20473;-96
2022/10/28 08:50:12;;;;;;;9.75;6.50;;;;;;;;;;10479542;28;20419;-96
2022/10/28 08:55:20;;;;;;;16.77;7.13;;;;;;;;;;10474336;28;20404;-96
2022/10/28 09:00:25;;;;;;;11.05;6.53;;;;;;;;;;10453428;28;20411;-96
2022/10/28 09:05:27;;;;;;;11.23;7.43;;;;;;;;;;10456220;28;20893;-96
2022/10/28 09:10:49;;;;;;;13.45;7.63;;;;;;;;;;10452194;28;20815;-96
2022/10/28 09:15:59;;;;;;;11.60;7.37;;;;;;;;;;10454215;28;20433;-96
2022/10/28 09:21:05;;;;;;;11.13;7.30;;;;;;;;;;10456271;28;20411;-96
2022/10/28 09:26:19;;;;;;;10.90;6.53;;;;;;;;;;10458567;28;20416;-96
2022/10/28 09:31:31;;;;;;;10.10;6.20;;;;;;;;;;10458681;28;20424;-96
2022/10/28 09:36:40;;;;;;;9.10;6.50;;;;;;;;;;10458427;28;20441;-96
2022/10/28 09:41:47;;;;;;;7.97;5.78;;;;;;;;;;10462606;28;20411;-96
2022/10/28 09:46:53;;;;;;;14.75;5.97;;;;;;;;;;10461339;28;20408;-96
2022/10/28 09:52:04;;;;;;;11.67;5.40;;;;;;;;;;10466483;28;20446;-96
2022/10/28 09:57:11;;;;;;;9.97;5.60;;;;;;;;;;10467853;28;20419;-96
2022/10/28 10:02:27;;;;;;;11.33;6.00;;;;;;;;;;10466066;28;20408;-96
2022/10/28 10:07:36;;;;;;;7.88;5.05;;;;;;;;;;10467331;28;20414;-96
2022/10/28 10:12:41;;;;;;;8.10;4.57;;;;;;;;;;10462118;28;20404;-96
2022/10/28 10:17:45;;;;;;;7.20;5.05;;;;;;;;;;10472739;28;20913;-96
2022/10/28 10:22:49;;;;;;;6.63;5.03;;;;;;;;;;10477332;28;20431;-96
2022/10/28 10:28:12;;;;;;;10.48;5.60;;;;;;;;;;10479493;28;20415;-96
2022/10/28 10:33:22;;;;;;;11.50;5.10;;;;;;;;;;10477081;28;20396;-96
2022/10/28 10:38:35;;;;;;;7.70;4.53;;;;;;;;;;10483958;28;20415;-96
2022/10/28 10:43:45;;;;;;;8.67;5.60;;;;;;;;;;10486872;28;20422;-96
2022/10/28 10:49:14;;;;;;;9.48;5.60;;;;;;;;;;10488833;28;20416;-96
2022/10/28 10:54:18;;;;;;;8.43;5.40;;;;;;;;;;10486948;28;20467;-96
2022/10/28 10:59:29;;;;;;;9.77;6.03;;;;;;;;;;10490396;28;20472;-96
2022/10/28 11:28:07;;;;;;;8.77;5.68;;;;;;;;;;10490710;28;20424;-96
2022/10/28 11:33:24;;;;;;;9.75;5.00;;;;;;;;;;10489255;28;20404;-96
2022/10/28 11:38:46;;;;;;;11.20;5.60;;;;;;;;;;10497293;28;20395;-96
2022/10/28 11:44:00;;;;;;;8.18;4.60;;;;;;;;;;10491289;28;20400;-96
2022/10/28 11:55:27;;;;;;;11.25;5.43;;;;;;;;;;10334308;28;20405;-96
2022/10/28 12:00:43;;;;;;;7.85;4.43;;;;;;;;;;10309285;28;20422;-96
2022/10/28 12:05:51;;;;;;;8.63;4.70;;;;;;;;;;10405331;28;20414;-96
2022/10/28 12:11:08;;;;;;;8.75;4.72;;;;;;;;;;10474217;28;20423;-96
2022/10/28 12:16:18;;;;;;;10.65;4.85;;;;;;;;;;10475167;28;20410;-96
2022/10/28 12:21:35;;;;;;;11.10;6.20;;;;;;;;;;10456048;28;20419;-96
2022/10/28 12:26:51;;;;;;;10.13;5.15;;;;;;;;;;10483092;28;20416;-96
2022/10/28 14:48:42;;;;;;;11.87;7.37;;;;;;;;;;10395421;28;20438;-96
2022/10/28 14:53:53;;;;;;;14.90;8.27;;;;;;;;;;10391459;28;20402;-96
2022/10/28 14:59:24;;;;;;;13.85;8.63;;;;;;;;;;10397398;28;20439;-96
2022/10/28 15:04:37;;;;;;;13.40;7.88;;;;;;;;;;10396589;28;20484;-96
2022/10/28 15:15:03;;;;;;;14.05;8.05;;;;;;;;;;10406022;28;20404;-96
2022/10/28 15:20:27;;;;;;;12.93;8.55;;;;;;;;;;10419268;28;20485;-96
2022/10/28 15:25:29;;;;;;;14.73;8.07;;;;;;;;;;10413985;28;20403;-96
2022/10/28 15:30:34;;;;;;;14.02;8.73;;;;;;;;;;10415790;28;20399;-96
2022/10/28 15:35:38;;;;;;;11.30;7.53;;;;;;;;;;10417241;28;20442;-96
2022/10/28 15:40:40;;;;;;;34.28;10.13;;;;;;;;;;10390523;28;20427;-96
2022/10/28 15:45:46;;;;;;;17.03;7.73;;;;;;;;;;10396486;28;20407;-96
2022/10/28 16:17:47;;;;;;;17.60;7.53;;;;;;;;;;10425437;28;20412;-96
2022/10/28 16:22:50;;;;;;;18.70;7.72;;;;;;;;;;10483565;28;20408;-96
2022/10/28 16:28:12;;;;;;;29.98;9.00;;;;;;;;;;10487153;28;20434;-96
2022/10/28 16:33:44;;;;;;;15.18;8.05;;;;;;;;;;10473323;28;20437;-96
2022/10/28 16:44:43;;;;;;;18.10;8.20;;;;;;;;;;10488779;28;20399;-96
2022/10/28 16:49:49;;;;;;;22.17;8.70;;;;;;;;;;10422911;22;20433;-89
2022/10/28 16:54:51;;;;;;;11.93;7.32;;;;;;;;;;10387512;28;20540;-89
2022/10/28 16:59:53;;;;;;;22.20;9.30;;;;;;;;;;10383841;28;20421;-87
2022/10/28 17:04:59;;;;;;;16.50;8.57;;;;;;;;;;10390359;28;20508;-89
2022/10/28 17:10:02;;;;;;;18.83;8.97;;;;;;;;;;10414345;28;20425;-88
2022/10/28 17:15:08;;;;;;;19.95;8.55;;;;;;;;;;10386240;28;20417;-88
2022/10/28 17:20:12;;;;;;;14.50;8.50;;;;;;;;;;10380733;28;20518;-87
2022/10/28 17:25:15;;;;;;;17.88;8.85;;;;;;;;;;10368328;28;20415;-88
2022/10/28 17:30:17;;;;;;;14.97;9.00;;;;;;;;;;10383979;28;21408;-88
2022/10/28 17:35:21;;;;;;;14.82;9.05;;;;;;;;;;10378894;28;20513;-89
2022/10/28 17:40:23;;;;;;;13.90;8.45;;;;;;;;;;10389891;28;20421;-88
2022/10/28 17:45:25;;;;;;;18.23;9.30;;;;;;;;;;10390899;28;20437;-88
2022/10/28 17:50:28;;;;;;;16.38;9.85;;;;;;;;;;10376984;28;20471;-89
2022/10/28 17:55:31;;;;;;;16.80;9.67;;;;;;;;;;10388590;28;20769;-88
2022/10/28 18:00:32;;;;;;;19.08;9.85;;;;;;;;;;10384526;28;20414;-88
2022/10/28 18:05:37;;;;;;;16.77;9.95;;;;;;;;;;10392802;28;20889;-89
2022/10/28 18:10:39;;;;;;;20.43;11.57;;;;;;;;;;10397678;28;20520;-89
2022/10/28 18:15:40;;;;;;;18.07;11.50;;;;;;;;;;10387598;28;20453;-88
2022/10/28 18:20:52;;;;;;;19.97;11.90;;;;;;;;;;10389870;28;20418;-89
2022/10/28 18:25:58;;;;;;;17.60;12.50;;;;;;;;;;10393911;28;20483;-88
2022/10/28 18:31:04;;;;;;;24.30;13.77;;;;;;;;;;10384817;28;20430;-87
2022/10/28 18:36:12;;;;;;;24.08;14.10;;;;;;;;;;10390324;28;20433;-88
2022/10/28 18:41:18;;;;;;;32.10;15.48;;;;;;;;;;10390416;28;20407;-88
2022/10/28 18:46:21;;;;;;;26.77;16.00;;;;;;;;;;10396918;28;20455;-88
2022/10/28 18:51:26;;;;;;;34.22;17.67;;;;;;;;;;10295705;28;20464;-89
2022/10/28 18:56:32;;;;;;;30.77;17.20;;;;;;;;;;10305919;28;20430;-88
2022/10/28 19:01:45;;;;;;;32.80;18.20;;;;;;;;;;10305950;28;22016;-87
2022/10/28 19:06:50;;;;;;;29.20;16.93;;;;;;;;;;10295584;28;20424;-88
2022/10/28 19:11:54;;;;;;;32.22;18.15;;;;;;;;;;10298822;28;20441;-89
2022/10/28 19:16:59;;;;;;;32.87;17.00;;;;;;;;;;10299091;28;20418;-87
2022/10/28 19:22:02;;;;;;;30.90;18.25;;;;;;;;;;10299657;28;20525;-87
2022/10/28 19:27:06;;;;;;;29.50;17.87;;;;;;;;;;10291928;28;20424;-87
2022/10/28 19:32:08;;;;;;;29.92;17.58;;;;;;;;;;10293561;28;20474;-88
2022/10/28 19:37:11;;;;;;;29.17;17.33;;;;;;;;;;10295752;28;20465;-88
2022/10/28 19:42:13;;;;;;;34.10;17.48;;;;;;;;;;10301487;28;20819;-88
2022/10/28 19:47:15;;;;;;;30.02;17.13;;;;;;;;;;10314731;28;20441;-88
2022/10/28 19:52:18;;;;;;;26.30;17.08;;;;;;;;;;10374175;28;20526;-86
2022/10/28 19:57:20;;;;;;;28.47;17.40;;;;;;;;;;10375405;28;20411;-87
2022/10/28 20:02:23;;;;;;;29.70;17.55;;;;;;;;;;10375524;28;20425;-86
2022/10/28 20:07:27;;;;;;;32.03;17.83;;;;;;;;;;10367690;28;20902;-89
2022/10/28 20:12:29;;;;;;;29.90;18.08;;;;;;;;;;10380338;28;20425;-88
2022/10/28 20:17:31;;;;;;;27.70;17.10;;;;;;;;;;10374395;28;20492;-89
2022/10/28 20:22:34;;;;;;;26.30;16.53;;;;;;;;;;10378886;28;20428;-89
2022/10/28 20:27:37;;;;;;;26.20;16.50;;;;;;;;;;10365389;28;20423;-88
2022/10/28 20:32:39;;;;;;;29.00;16.20;;;;;;;;;;10377910;28;20930;-88
2022/10/28 20:37:42;;;;;;;28.43;16.47;;;;;;;;;;10370767;28;20525;-89
2022/10/28 20:42:44;;;;;;;23.85;15.65;;;;;;;;;;10367558;28;20777;-88
2022/10/28 20:47:46;;;;;;;23.98;16.02;;;;;;;;;;10370388;28;20419;-88
2022/10/28 20:52:50;;;;;;;25.42;16.10;;;;;;;;;;10386415;28;20873;-88
2022/10/28 20:57:52;;;;;;;45.28;28.25;;;;;;;;;;10381046;28;20894;-90
2022/10/28 21:02:55;;;;;;;41.97;23.40;;;;;;;;;;10368740;28;20418;-90
2022/10/28 21:07:59;;;;;;;26.70;16.37;;;;;;;;;;10390260;28;20463;-89
2022/10/28 21:13:01;;;;;;;31.33;16.30;;;;;;;;;;10378292;28;20430;-89
2022/10/28 21:18:03;;;;;;;26.67;15.90;;;;;;;;;;10373578;28;20405;-89
2022/10/28 21:23:07;;;;;;;28.25;16.95;;;;;;;;;;10376445;28;20456;-88
2022/10/28 21:28:09;;;;;;;27.10;16.58;;;;;;;;;;10388029;28;20418;-89
2022/10/28 21:33:11;;;;;;;27.25;16.90;;;;;;;;;;10391770;28;20472;-89
2022/10/28 21:38:15;;;;;;;28.23;16.02;;;;;;;;;;10378096;28;20407;-90
2022/10/28 21:43:17;;;;;;;26.47;15.70;;;;;;;;;;10378386;28;20516;-87
2022/10/28 21:48:19;;;;;;;27.20;15.33;;;;;;;;;;10375607;28;20405;-89
2022/10/28 21:53:23;;;;;;;24.42;15.20;;;;;;;;;;10376908;28;20510;-88
2022/10/28 21:58:25;;;;;;;26.05;14.75;;;;;;;;;;10382253;28;20471;-89
2022/10/28 22:03:26;;;;;;;26.00;15.30;;;;;;;;;;10390136;28;20433;-88
2022/10/28 22:08:30;;;;;;;24.50;14.35;;;;;;;;;;10395598;28;20783;-88
2022/10/28 22:13:32;;;;;;;25.58;14.57;;;;;;;;;;10388891;28;20468;-89
2022/10/28 22:18:36;;;;;;;28.08;14.95;;;;;;;;;;10399475;28;20492;-88
2022/10/28 22:23:39;;;;;;;26.65;15.55;;;;;;;;;;10402050;28;20488;-88
2022/10/28 22:28:42;;;;;;;25.73;14.83;;;;;;;;;;10397243;28;20394;-88
2022/10/28 22:33:44;;;;;;;25.47;15.57;;;;;;;;;;10385920;28;20526;-88
2022/10/28 22:38:47;;;;;;;25.48;14.90;;;;;;;;;;10386158;28;20434;-89
2022/10/28 22:43:51;;;;;;;22.40;14.83;;;;;;;;;;10386411;28;20492;-89
2022/10/28 22:48:53;;;;;;;22.93;14.60;;;;;;;;;;10379098;28;20419;-88
2022/10/28 22:53:56;;;;;;;25.42;14.30;;;;;;;;;;10380390;28;20430;-89
2022/10/28 22:59:00;;;;;;;26.17;14.52;;;;;;;;;;10381246;28;20524;-90
2022/10/28 23:04:01;;;;;;;25.33;14.83;;;;;;;;;;10390309;28;20440;-88
2022/10/28 23:09:05;;;;;;;23.75;14.48;;;;;;;;;;10390900;28;20416;-89
2022/10/28 23:14:07;;;;;;;26.37;14.53;;;;;;;;;;10390098;28;20531;-89
2022/10/28 23:19:09;;;;;;;25.73;13.63;;;;;;;;;;10404353;28;20441;-88
2022/10/28 23:24:12;;;;;;;24.75;13.38;;;;;;;;;;10393917;28;20433;-87
2022/10/28 23:29:14;;;;;;;20.45;13.07;;;;;;;;;;10387743;28;20490;-89
2022/10/28 23:34:15;;;;;;;21.75;14.00;;;;;;;;;;10391639;28;20434;-89
2022/10/28 23:39:19;;;;;;;22.73;13.65;;;;;;;;;;10399434;28;20440;-89
2022/10/28 23:44:20;;;;;;;24.33;13.20;;;;;;;;;;10393905;28;20832;-89
2022/10/28 23:49:22;;;;;;;22.08;13.48;;;;;;;;;;10402113;28;20932;-88
2022/10/28 23:54:26;;;;;;;19.05;12.50;;;;;;;;;;10387938;28;20522;-89
2022/10/28 23:59:27;;;;;;;19.97;12.80;;;;;;;;;;10399709;28;20440;-87
